createdAt,value
2022-12-18T00:02:25.527Z,18.73
2022-12-18T00:04:52.277Z,17.83
2022-12-18T00:07:19.082Z,19.30
2022-12-18T00:09:46.843Z,19.90
2022-12-18T00:14:44.494Z,18.35
2022-12-18T00:17:11.279Z,18.42
2022-12-18T00:19:38.073Z,18.88
2022-12-18T00:22:04.910Z,17.42
2022-12-18T00:24:31.722Z,17.67
2022-12-18T00:26:58.533Z,17.77
2022-12-18T00:29:25.279Z,18.80
2022-12-18T00:31:52.272Z,18.45
2022-12-18T00:34:19.077Z,18.33
2022-12-18T00:36:48.774Z,17.67
2022-12-18T00:39:15.596Z,17.70
2022-12-18T00:42:00.915Z,18.35
2022-12-18T00:44:27.734Z,18.08
2022-12-18T00:46:54.489Z,17.85
2022-12-18T00:49:21.590Z,17.83
2022-12-18T00:51:49.384Z,18.02
2022-12-18T00:54:17.742Z,16.58
2022-12-18T00:56:48.999Z,17.75
2022-12-18T00:59:18.115Z,16.52
2022-12-18T01:01:45.804Z,16.98
2022-12-18T01:04:12.804Z,18.48
2022-12-18T01:06:39.666Z,17.40
2022-12-18T01:09:06.996Z,18.25
2022-12-18T01:11:33.811Z,18.65
2022-12-18T01:14:00.614Z,17.83
2022-12-18T01:16:27.491Z,18.23
2022-12-18T01:18:55.521Z,17.98
2022-12-18T01:21:23.852Z,18.00
2022-12-18T01:23:55.313Z,18.95
2022-12-18T01:26:22.348Z,19.00
2022-12-18T01:28:49.221Z,17.52
2022-12-18T01:31:30.920Z,17.98
2022-12-18T01:33:58.432Z,17.05
2022-12-18T01:36:28.152Z,17.13
2022-12-18T01:38:55.977Z,18.27
2022-12-18T01:41:48.594Z,17.55
2022-12-18T01:44:49.630Z,17.98
2022-12-18T01:47:21.498Z,17.05
2022-12-18T01:49:48.592Z,17.35
2022-12-18T01:52:16.420Z,16.58
2022-12-18T01:54:43.567Z,17.23
2022-12-18T01:57:10.529Z,17.80
2022-12-18T01:59:39.871Z,17.33
2022-12-18T02:02:09.259Z,17.15
2022-12-18T02:04:36.308Z,16.65
2022-12-18T02:07:17.862Z,18.20
2022-12-18T02:09:56.179Z,17.42
2022-12-18T02:12:25.612Z,17.92
2022-12-18T02:15:26.177Z,16.30
2022-12-18T02:18:07.630Z,16.70
2022-12-18T02:20:58.120Z,15.52
2022-12-18T02:23:48.337Z,16.65
2022-12-18T02:26:22.947Z,16.05
2022-12-18T02:29:04.930Z,16.83
2022-12-18T02:31:43.340Z,16.05
2022-12-18T02:34:12.179Z,17.15
2022-12-18T02:36:42.798Z,16.20
2022-12-18T02:39:13.062Z,15.35
2022-12-18T02:41:40.721Z,16.48
2022-12-18T02:44:12.803Z,17.40
2022-12-18T02:46:43.741Z,15.73
2022-12-18T02:49:32.159Z,16.13
2022-12-18T02:52:30.226Z,14.55
2022-12-18T02:55:13.656Z,16.00
2022-12-18T02:58:00.950Z,15.23
2022-12-18T03:00:38.725Z,15.65
2022-12-18T03:03:09.102Z,16.42
2022-12-18T03:05:59.792Z,15.35
2022-12-18T03:08:33.099Z,16.75
2022-12-18T03:11:07.072Z,15.57
2022-12-18T03:13:58.068Z,16.27
2022-12-18T03:16:29.643Z,15.23
2022-12-18T03:18:58.828Z,17.38
2022-12-18T03:21:51.676Z,16.88
2022-12-18T03:24:20.832Z,17.08
2022-12-18T03:26:50.212Z,17.17
2022-12-18T03:29:19.889Z,16.15
2022-12-18T03:31:52.412Z,16.75
2022-12-18T03:34:27.772Z,16.92
2022-12-18T03:36:54.733Z,16.35
2022-12-18T03:39:21.884Z,17.77
2022-12-18T03:41:59.143Z,17.27
2022-12-18T03:44:36.854Z,17.65
2022-12-18T03:47:18.418Z,17.25
2022-12-18T03:49:56.634Z,16.13
2022-12-18T03:52:39.550Z,16.67
2022-12-18T03:55:08.101Z,15.70
2022-12-18T03:57:35.362Z,15.57
2022-12-18T04:00:07.086Z,17.13
2022-12-18T04:02:36.712Z,15.63
2022-12-18T04:05:07.973Z,16.08
2022-12-18T04:07:35.637Z,16.75
2022-12-18T04:10:07.020Z,16.75
2022-12-18T04:12:33.875Z,16.77
2022-12-18T04:15:00.692Z,15.75
2022-12-18T04:17:27.533Z,16.20
2022-12-18T04:19:54.304Z,15.23
2022-12-18T04:22:21.126Z,15.75
2022-12-18T04:24:47.916Z,15.27
2022-12-18T04:27:15.056Z,15.55
2022-12-18T04:29:41.988Z,15.85
2022-12-18T04:32:09.445Z,15.02
2022-12-18T04:34:36.233Z,15.02
2022-12-18T04:37:02.994Z,14.88
2022-12-18T04:39:29.941Z,15.98
2022-12-18T04:41:56.757Z,14.50
2022-12-18T04:44:23.995Z,14.75
2022-12-18T04:46:50.823Z,14.27
2022-12-18T04:49:17.712Z,14.95
2022-12-18T04:51:44.504Z,15.05
2022-12-18T04:54:11.244Z,14.52
2022-12-18T04:56:38.030Z,15.05
2022-12-18T04:59:04.760Z,14.98
2022-12-18T05:01:34.729Z,14.48
2022-12-18T05:04:03.033Z,14.57
2022-12-18T05:06:30.327Z,15.73
2022-12-18T05:08:57.164Z,14.88
2022-12-18T05:11:23.909Z,15.30
2022-12-18T05:13:50.720Z,15.43
2022-12-18T05:16:17.749Z,15.32
2022-12-18T05:18:44.681Z,15.45
2022-12-18T05:21:11.538Z,15.23
2022-12-18T05:23:38.979Z,15.13
2022-12-18T05:26:07.646Z,14.73
2022-12-18T05:28:36.033Z,15.55
2022-12-18T05:31:04.864Z,15.88
2022-12-18T05:33:34.065Z,16.05
2022-12-18T05:36:02.483Z,16.42
2022-12-18T05:38:31.012Z,15.25
2022-12-18T05:40:58.360Z,15.88
2022-12-18T05:43:26.402Z,16.60
2022-12-18T05:45:54.205Z,14.95
2022-12-18T05:48:21.720Z,15.07
2022-12-18T05:50:49.812Z,15.98
2022-12-18T05:53:18.513Z,15.18
2022-12-18T05:55:45.879Z,14.00
2022-12-18T05:58:13.982Z,14.63
2022-12-18T06:00:42.691Z,13.98
2022-12-18T06:03:11.265Z,13.65
2022-12-18T06:05:43.310Z,14.43
2022-12-18T06:08:10.878Z,14.32
2022-12-18T06:10:38.290Z,14.85
2022-12-18T06:13:06.154Z,14.55
2022-12-18T06:15:33.510Z,13.95
2022-12-18T06:18:01.801Z,13.98
2022-12-18T06:20:33.867Z,14.02
2022-12-18T06:23:01.320Z,14.38
2022-12-18T06:25:28.213Z,14.30
2022-12-18T06:27:55.067Z,13.70
2022-12-18T06:30:21.949Z,14.35
2022-12-18T06:32:56.561Z,14.55
2022-12-18T06:35:24.043Z,14.93
2022-12-18T06:37:50.826Z,14.32
2022-12-18T06:40:17.751Z,13.85
2022-12-18T06:42:44.580Z,14.55
2022-12-18T06:45:12.363Z,14.40
2022-12-18T06:47:39.158Z,13.45
2022-12-18T06:50:06.651Z,12.98
2022-12-18T06:52:34.565Z,13.52
2022-12-18T06:55:01.455Z,13.98
2022-12-18T06:57:28.216Z,13.07
2022-12-18T06:59:55.162Z,14.00
2022-12-18T07:02:22.080Z,14.13
2022-12-18T07:04:52.045Z,14.00
2022-12-18T07:07:19.110Z,13.63
2022-12-18T07:09:46.005Z,14.48
2022-12-18T07:12:12.823Z,13.20
2022-12-18T07:14:39.594Z,13.05
2022-12-18T07:17:06.640Z,13.95
2022-12-18T07:19:33.797Z,13.15
2022-12-18T07:22:00.821Z,12.45
2022-12-18T07:24:27.749Z,11.93
2022-12-18T07:26:54.562Z,11.07
2022-12-18T07:29:21.832Z,12.45
2022-12-18T07:31:48.608Z,12.32
2022-12-18T07:34:16.275Z,12.82
2022-12-18T07:36:43.358Z,12.65
2022-12-18T07:39:12.049Z,11.80
2022-12-18T07:41:43.765Z,12.13
2022-12-18T07:44:13.939Z,13.55
2022-12-18T07:46:40.731Z,14.57
2022-12-18T07:49:07.735Z,13.15
2022-12-18T07:51:34.597Z,13.23
2022-12-18T07:54:01.377Z,13.02
2022-12-18T07:56:29.898Z,12.93
2022-12-18T07:58:57.461Z,13.15
2022-12-18T08:01:24.368Z,12.13
2022-12-18T08:03:52.269Z,11.20
2022-12-18T08:06:22.164Z,10.95
2022-12-18T08:08:55.407Z,12.48
2022-12-18T08:11:23.568Z,12.07
2022-12-18T08:13:50.411Z,12.75
2022-12-18T08:16:18.036Z,11.88
2022-12-18T08:18:45.016Z,12.88
2022-12-18T08:21:17.304Z,11.73
2022-12-18T08:23:44.379Z,12.45
2022-12-18T08:26:12.651Z,10.65
2022-12-18T08:28:40.037Z,11.70
2022-12-18T08:31:07.606Z,11.80
2022-12-18T08:33:35.666Z,12.15
2022-12-18T08:36:06.553Z,10.43
2022-12-18T08:38:34.202Z,10.88
2022-12-18T08:41:02.425Z,12.45
2022-12-18T08:43:48.278Z,11.13
2022-12-18T08:46:16.788Z,10.93
2022-12-18T08:48:43.679Z,12.52
2022-12-18T08:51:13.316Z,12.20
2022-12-18T08:53:40.692Z,12.63
2022-12-18T08:56:08.522Z,11.82
2022-12-18T08:58:35.353Z,12.00
2022-12-18T09:01:04.535Z,12.85
2022-12-18T09:03:32.666Z,11.50
2022-12-18T09:06:00.510Z,12.30
2022-12-18T09:08:27.967Z,11.38
2022-12-18T09:10:55.259Z,11.85
2022-12-18T09:13:22.591Z,11.77
2022-12-18T09:15:52.551Z,11.30
2022-12-18T09:18:21.127Z,10.40
2022-12-18T09:20:48.373Z,10.45
2022-12-18T09:23:15.496Z,11.30
2022-12-18T09:25:42.351Z,10.50
2022-12-18T09:28:17.226Z,12.00
2022-12-18T09:30:49.941Z,11.40
2022-12-18T09:33:18.243Z,10.65
2022-12-18T09:35:46.527Z,10.45
2022-12-18T09:38:19.743Z,10.30
2022-12-18T09:40:52.707Z,10.50
2022-12-18T09:43:29.035Z,10.38
2022-12-18T09:46:03.624Z,11.43
2022-12-18T09:48:35.833Z,10.88
2022-12-18T09:51:25.346Z,10.75
2022-12-18T09:53:57.982Z,10.18
2022-12-18T09:56:28.213Z,9.88
2022-12-18T09:59:02.601Z,10.23
2022-12-18T10:01:41.460Z,10.32
2022-12-18T10:04:11.307Z,10.40
2022-12-18T10:07:09.136Z,10.45
2022-12-18T10:09:47.868Z,10.35
2022-12-18T10:12:52.348Z,10.48
2022-12-18T10:15:40.162Z,10.30
2022-12-18T10:18:36.154Z,10.07
2022-12-18T10:21:12.212Z,10.98
2022-12-18T10:23:54.089Z,10.45
2022-12-18T10:26:21.171Z,10.73
2022-12-18T10:28:48.949Z,10.88
2022-12-18T10:31:24.260Z,12.27
2022-12-18T10:33:52.340Z,12.73
2022-12-18T10:36:19.485Z,12.00
2022-12-18T10:38:46.340Z,11.32
2022-12-18T10:41:20.037Z,10.73
2022-12-18T10:43:49.342Z,11.45
2022-12-18T10:46:20.647Z,11.13
2022-12-18T10:48:55.283Z,11.13
2022-12-18T10:51:22.092Z,13.23
2022-12-18T10:54:06.218Z,11.30
2022-12-18T10:56:36.682Z,12.60
2022-12-18T10:59:09.345Z,11.75
2022-12-18T11:01:48.531Z,10.35
2022-12-18T11:04:24.699Z,12.32
2022-12-18T11:07:05.024Z,11.55
2022-12-18T11:09:37.891Z,12.02
2022-12-18T11:12:18.815Z,12.10
2022-12-18T11:14:51.816Z,11.52
2022-12-18T11:17:25.904Z,13.77
2022-12-18T11:19:55.946Z,13.98
2022-12-18T11:22:30.117Z,17.67
2022-12-18T11:28:03.295Z,12.52
2022-12-18T11:30:33.248Z,12.90
2022-12-18T11:33:07.497Z,11.15
2022-12-18T11:35:43.312Z,11.32
2022-12-18T11:38:27.013Z,11.65
2022-12-18T11:41:19.806Z,13.50
2022-12-18T11:43:53.944Z,11.88
2022-12-18T11:46:41.060Z,13.00
2022-12-18T11:49:19.857Z,14.75
2022-12-18T11:52:25.140Z,15.93
2022-12-18T11:54:54.298Z,19.50
2022-12-18T11:57:39.611Z,14.93
2022-12-18T12:00:26.948Z,17.42
2022-12-18T12:03:25.538Z,22.73
2022-12-18T12:06:46.698Z,16.75
2022-12-18T12:09:16.411Z,12.07
2022-12-18T12:11:45.971Z,13.00
2022-12-18T12:14:26.152Z,13.07
2022-12-18T12:17:11.445Z,13.57
2022-12-18T12:20:01.511Z,13.93
2022-12-18T12:22:54.728Z,16.70
2022-12-18T12:25:59.763Z,16.83
2022-12-18T12:28:51.395Z,19.95
2022-12-18T12:31:27.501Z,15.93
2022-12-18T12:33:57.035Z,17.80
2022-12-18T12:36:30.093Z,16.75
2022-12-18T12:39:02.488Z,16.70
2022-12-18T12:41:53.289Z,14.15
2022-12-18T12:44:25.275Z,18.80
2022-12-18T12:46:56.186Z,14.85
2022-12-18T12:49:27.972Z,14.50
2022-12-18T12:52:02.783Z,12.90
2022-12-18T12:54:32.712Z,13.60
2022-12-18T12:57:11.361Z,13.30
2022-12-18T13:00:09.227Z,12.32
2022-12-18T13:03:17.104Z,13.40
2022-12-18T13:05:56.084Z,13.02
2022-12-18T13:08:30.038Z,12.88
2022-12-18T13:11:18.523Z,13.30
2022-12-18T13:13:55.297Z,12.82
2022-12-18T13:16:28.586Z,13.40
2022-12-18T13:19:00.026Z,14.73
2022-12-18T13:21:31.535Z,14.05
2022-12-18T13:24:24.624Z,14.88
2022-12-18T13:26:51.651Z,15.73
2022-12-18T13:29:58.400Z,15.38
2022-12-18T13:32:27.594Z,16.45
2022-12-18T13:35:22.685Z,13.88
2022-12-18T13:37:54.128Z,13.65
2022-12-18T13:40:39.740Z,13.13
2022-12-18T13:43:46.739Z,12.35
2022-12-18T13:46:21.511Z,13.02
2022-12-18T13:49:02.301Z,13.40
2022-12-18T13:51:33.957Z,14.82
2022-12-18T13:54:00.780Z,13.18
2022-12-18T13:56:30.721Z,13.52
2022-12-18T14:30:57.828Z,18.63
2022-12-18T14:33:28.803Z,23.77
2022-12-18T14:36:05.069Z,20.00
2022-12-18T14:38:37.398Z,16.35
2022-12-18T14:41:13.415Z,15.05
2022-12-18T14:43:42.981Z,13.98
2022-12-18T14:46:38.330Z,14.00
2022-12-18T14:49:32.328Z,14.25
2022-12-18T14:52:08.221Z,14.75
2022-12-18T14:54:38.230Z,15.40
2022-12-18T14:57:25.912Z,15.05
2022-12-18T14:59:53.231Z,13.95
2022-12-18T15:02:27.587Z,14.98
2022-12-18T15:05:12.747Z,17.13
2022-12-18T15:07:45.102Z,17.20
2022-12-18T15:10:24.901Z,17.45
2022-12-18T15:13:09.366Z,15.48
2022-12-18T15:15:37.018Z,16.85
2022-12-18T15:18:13.288Z,15.93
2022-12-18T15:20:56.042Z,16.95
2022-12-18T15:23:46.333Z,17.33
2022-12-18T15:26:15.807Z,17.33
2022-12-18T15:28:57.099Z,17.40
2022-12-18T15:31:29.671Z,16.48
2022-12-18T15:33:56.518Z,18.85
2022-12-18T15:36:26.764Z,15.55
2022-12-18T15:38:58.900Z,23.73
2022-12-18T15:41:35.778Z,18.27
2022-12-18T15:44:16.851Z,16.05
2022-12-18T15:46:43.884Z,20.20
2022-12-18T15:49:11.853Z,18.50
2022-12-18T15:51:39.865Z,19.98
2022-12-18T15:54:12.209Z,18.75
2022-12-18T15:56:57.770Z,16.27
2022-12-18T15:59:25.641Z,15.40
2022-12-18T16:01:56.707Z,16.75
2022-12-18T16:04:25.564Z,15.05
2022-12-18T16:07:14.867Z,15.35
2022-12-18T16:09:40.018Z,15.75
2022-12-18T16:12:12.319Z,16.92
2022-12-18T16:14:39.335Z,16.23
2022-12-18T16:17:09.953Z,15.82
2022-12-18T16:19:36.803Z,16.63
2022-12-18T16:22:05.945Z,16.35
2022-12-18T16:24:37.166Z,15.95
2022-12-18T16:27:04.450Z,15.98
2022-12-18T16:29:31.341Z,15.77
2022-12-18T16:32:00.030Z,17.20
2022-12-18T16:34:35.397Z,15.48
2022-12-18T16:37:08.355Z,15.38
2022-12-18T16:39:36.513Z,14.13
2022-12-18T16:42:06.392Z,14.25
2022-12-18T16:44:34.639Z,15.57
2022-12-18T16:47:03.185Z,18.25
2022-12-18T16:49:30.991Z,18.10
2022-12-18T16:51:57.919Z,16.23
2022-12-18T16:54:25.129Z,16.40
2022-12-18T16:56:52.461Z,16.15
2022-12-18T16:59:19.939Z,16.42
2022-12-18T17:01:47.332Z,17.23
2022-12-18T17:04:14.897Z,16.88
2022-12-18T17:06:44.183Z,15.88
2022-12-18T17:09:16.302Z,17.02
2022-12-18T17:11:43.836Z,17.70
2022-12-18T17:14:19.275Z,16.25
2022-12-18T17:16:47.152Z,15.90
2022-12-18T17:19:17.390Z,16.55
2022-12-18T17:21:45.564Z,15.32
2022-12-18T17:24:12.478Z,17.30
2022-12-18T17:26:39.648Z,16.38
2022-12-18T17:29:06.749Z,17.48
2022-12-18T17:31:34.267Z,16.42
2022-12-18T17:34:04.478Z,16.50
2022-12-18T17:36:32.370Z,15.77
2022-12-18T17:39:03.327Z,16.75
2022-12-18T17:41:31.268Z,16.20
2022-12-18T17:44:04.205Z,15.88
2022-12-18T17:46:33.340Z,16.30
2022-12-18T17:49:01.924Z,16.77
2022-12-18T17:51:29.767Z,15.75
2022-12-18T17:53:56.607Z,15.63
2022-12-18T17:56:24.758Z,15.88
2022-12-18T17:58:52.451Z,14.35
2022-12-18T18:01:22.089Z,15.65
2022-12-18T18:03:49.811Z,16.23
2022-12-18T18:06:20.497Z,16.05
2022-12-18T18:08:47.468Z,15.93
2022-12-18T18:11:36.271Z,16.95
2022-12-18T18:14:06.092Z,16.42
2022-12-18T18:16:44.569Z,15.60
2022-12-18T18:19:18.373Z,15.48
2022-12-18T18:21:47.492Z,15.35
2022-12-18T18:24:17.741Z,15.68
2022-12-18T18:26:49.245Z,15.52
2022-12-18T18:29:18.803Z,16.25
2022-12-18T18:31:46.282Z,14.73
2022-12-18T18:34:22.362Z,17.25
2022-12-18T18:36:49.256Z,15.63
2022-12-18T18:39:16.658Z,16.83
2022-12-18T18:41:46.472Z,16.08
2022-12-18T18:44:24.418Z,15.23
2022-12-18T18:46:57.017Z,14.57
2022-12-18T18:49:26.964Z,16.05
2022-12-18T18:51:55.014Z,15.05
2022-12-18T18:54:22.250Z,15.43
2022-12-18T18:59:37.219Z,17.45
2022-12-18T19:02:04.542Z,16.10
2022-12-18T19:04:33.290Z,15.38
2022-12-18T19:07:00.394Z,15.50
2022-12-18T19:09:28.035Z,15.88
2022-12-18T19:12:14.322Z,14.70
2022-12-18T19:14:41.931Z,15.05
2022-12-18T19:17:09.355Z,14.50
2022-12-18T19:19:36.419Z,15.82
2022-12-18T19:22:06.419Z,15.15
2022-12-18T19:24:33.427Z,14.90
2022-12-18T19:27:00.267Z,13.80
2022-12-18T19:29:27.223Z,14.60
2022-12-18T19:31:54.350Z,14.85
2022-12-18T19:34:21.252Z,13.10
2022-12-18T19:36:48.171Z,14.20
2022-12-18T19:39:17.966Z,13.70
2022-12-18T19:41:46.755Z,15.02
2022-12-18T19:44:16.031Z,13.65
2022-12-18T19:46:44.096Z,13.75
2022-12-18T19:49:11.330Z,15.18
2022-12-18T19:51:43.378Z,14.13
2022-12-18T19:54:16.428Z,14.52
2022-12-18T19:56:43.751Z,13.43
2022-12-18T19:59:10.688Z,14.23
2022-12-18T20:01:37.835Z,14.77
2022-12-18T20:04:05.488Z,15.05
2022-12-18T20:06:49.980Z,14.05
2022-12-18T20:09:17.693Z,14.23
2022-12-18T20:11:44.833Z,15.20
2022-12-18T20:14:13.786Z,14.68
2022-12-18T20:16:41.441Z,14.90
2022-12-18T20:19:09.853Z,15.27
2022-12-18T20:21:37.666Z,15.57
2022-12-18T20:24:04.835Z,17.38
2022-12-18T20:26:31.832Z,15.52
2022-12-18T20:28:58.950Z,15.75
2022-12-18T20:31:26.232Z,15.20
2022-12-18T20:33:54.425Z,14.15
2022-12-18T20:36:24.573Z,15.45
2022-12-18T20:38:57.056Z,15.30
2022-12-18T20:41:26.284Z,14.15
2022-12-18T20:43:57.891Z,15.07
2022-12-18T20:46:24.886Z,16.15
2022-12-18T20:48:51.869Z,16.00
2022-12-18T20:51:20.700Z,15.63
2022-12-18T20:53:48.201Z,16.00
2022-12-18T20:56:21.911Z,15.75
2022-12-18T20:58:54.870Z,16.50
2022-12-18T21:01:23.416Z,16.67
2022-12-18T21:03:50.900Z,16.00
2022-12-18T21:06:19.438Z,16.15
2022-12-18T21:08:46.594Z,15.32
2022-12-18T21:11:38.050Z,16.92
2022-12-18T21:14:14.987Z,16.25
2022-12-18T21:16:45.612Z,15.55
2022-12-18T21:19:14.998Z,16.15
2022-12-18T21:21:42.628Z,15.68
2022-12-18T21:24:10.581Z,15.52
2022-12-18T21:26:44.951Z,13.43
2022-12-18T21:29:18.031Z,16.08
2022-12-18T21:31:46.152Z,15.00
2022-12-18T21:34:20.890Z,15.48
2022-12-18T21:36:48.609Z,15.25
2022-12-18T21:39:16.583Z,15.90
2022-12-18T21:42:02.278Z,15.18
2022-12-18T21:44:30.630Z,14.13
2022-12-18T21:47:10.773Z,14.85
2022-12-18T21:49:43.651Z,14.82
2022-12-18T21:52:12.057Z,14.13
2022-12-18T21:54:39.394Z,14.35
2022-12-18T21:57:08.638Z,14.65
2022-12-18T21:59:39.993Z,15.23
2022-12-18T22:02:18.886Z,13.75
2022-12-18T22:04:46.965Z,14.38
2022-12-18T22:07:15.514Z,13.55
2022-12-18T22:09:42.735Z,14.32
2022-12-18T22:12:12.782Z,14.13
2022-12-18T22:14:39.732Z,14.25
2022-12-18T22:17:06.642Z,14.35
2022-12-18T22:19:38.124Z,14.52
2022-12-18T22:22:09.640Z,13.52
2022-12-18T22:24:36.674Z,14.63
2022-12-18T22:27:03.669Z,14.52
2022-12-18T22:29:49.797Z,14.15
2022-12-18T22:32:30.943Z,13.93
2022-12-18T22:35:12.920Z,12.65
2022-12-18T22:37:45.011Z,13.27
2022-12-18T22:40:27.279Z,12.43
2022-12-18T22:43:23.292Z,14.23
2022-12-18T22:45:50.633Z,13.18
2022-12-18T22:48:17.891Z,13.10
2022-12-18T22:50:44.906Z,13.32
2022-12-18T22:53:12.465Z,13.35
2022-12-18T22:55:39.825Z,13.65
2022-12-18T22:58:07.026Z,14.50
2022-12-18T23:00:34.068Z,13.07
2022-12-18T23:03:01.432Z,13.68
2022-12-18T23:05:32.009Z,12.90
2022-12-18T23:07:59.449Z,13.63
2022-12-18T23:10:29.150Z,12.80
2022-12-18T23:12:56.190Z,13.05
2022-12-18T23:15:28.075Z,12.57
2022-12-18T23:17:59.622Z,12.38
2022-12-18T23:20:29.479Z,13.48
2022-12-18T23:22:59.698Z,12.88
2022-12-18T23:25:34.515Z,13.00
2022-12-18T23:28:01.558Z,12.85
2022-12-18T23:30:28.651Z,14.10
2022-12-18T23:32:58.298Z,12.35
2022-12-18T23:35:29.060Z,11.65
2022-12-18T23:37:59.997Z,11.88
2022-12-18T23:40:28.099Z,11.82
2022-12-18T23:42:55.511Z,12.32
2022-12-18T23:48:40.609Z,11.05
2022-12-18T23:49:49.369Z,12.00
2022-12-18T23:51:09.122Z,11.48
2022-12-18T23:53:36.546Z,11.70
2022-12-18T23:56:06.639Z,11.70
2022-12-18T23:58:34.282Z,11.88
